Time;durP1;ratioP1;P1;durP2;ratioP2;P2;SDS_P1;SDS_P2;PMS_P1;PMS_P2;Temp;Humidity;BMP_temperature;BMP_pressure;BME280_temperature;BME280_humidity;BME280_pressure;Samples;Min_cycle;Max_cycle;Signal;HPM_P1;HPM_P2
2022/05/09 00:01:48;;;;;;;8.98;2.83;;;5.90;99.90;;;;;;5134177;27;20092;-75
2022/05/09 00:04:14;;;;;;;6.63;2.70;;;5.90;99.90;;;;;;5081792;27;20039;-75
2022/05/09 00:06:39;;;;;;;7.75;2.60;;;5.90;99.90;;;;;;5115998;27;20182;-75
2022/05/09 00:09:05;;;;;;;6.63;2.75;;;5.90;99.90;;;;;;5115821;27;20039;-75
2022/05/09 00:11:31;;;;;;;8.02;3.13;;;5.90;99.90;;;;;;5133286;27;20031;-75
2022/05/09 00:13:57;;;;;;;9.82;3.03;;;5.80;99.90;;;;;;5134031;27;20039;-74
2022/05/09 00:16:22;;;;;;;8.45;3.42;;;5.80;99.90;;;;;;5081789;27;20078;-74
2022/05/09 00:18:49;;;;;;;14.70;3.45;;;5.90;99.90;;;;;;5098844;27;20043;-75
2022/05/09 00:21:14;;;;;;;13.27;3.10;;;5.90;99.90;;;;;;5115108;27;20456;-75
2022/05/09 00:23:40;;;;;;;11.07;3.15;;;5.90;99.90;;;;;;5098926;27;20081;-75
2022/05/09 00:26:07;;;;;;;8.70;3.00;;;5.90;99.90;;;;;;5115755;27;20047;-75
2022/05/09 00:28:33;;;;;;;11.77;3.60;;;5.90;99.90;;;;;;5115448;27;20039;-75
2022/05/09 00:30:59;;;;;;;6.72;3.25;;;5.90;99.90;;;;;;5081367;27;20055;-75
2022/05/09 00:33:25;;;;;;;9.52;3.90;;;5.90;99.90;;;;;;5114993;27;20046;-74
2022/05/09 00:35:51;;;;;;;10.57;3.40;;;5.80;99.90;;;;;;5115682;27;20486;-75
2022/05/09 00:38:17;;;;;;;9.98;3.88;;;5.90;99.90;;;;;;5133215;27;20394;-75
2022/05/09 00:43:34;;;;;;;10.82;3.85;;;5.90;99.90;;;;;;5115226;28;20391;-75
2022/05/09 00:46:00;;;;;;;7.22;2.67;;;5.90;99.90;;;;;;5098675;28;20047;-75
2022/05/09 00:48:26;;;;;;;7.93;3.15;;;5.80;99.90;;;;;;5081504;28;20422;-74
2022/05/09 00:50:52;;;;;;;10.20;3.20;;;5.80;99.90;;;;;;5115681;28;20058;-75
2022/05/09 00:53:18;;;;;;;11.65;3.00;;;5.80;99.90;;;;;;5098134;28;20387;-75
2022/05/09 00:55:54;;;;;;;9.02;2.85;;;5.70;99.90;;;;;;5098454;28;20066;-75
2022/05/09 00:58:32;;;;;;;5.93;2.65;;;5.70;99.90;;;;;;5115014;28;20061;-74
2022/05/09 01:00:57;;;;;;;9.00;3.00;;;5.80;99.90;;;;;;5098492;28;20481;-75
2022/05/09 01:03:41;;;;;;;5.32;2.25;;;5.70;99.90;;;;;;5097922;28;20167;-75
2022/05/09 01:06:06;;;;;;;4.90;1.80;;;5.70;99.90;;;;;;5117393;28;20078;-75
2022/05/09 01:08:32;;;;;;;4.30;2.20;;;5.60;99.90;;;;;;5097637;28;20505;-75
2022/05/09 01:10:58;;;;;;;6.50;2.05;;;5.60;99.90;;;;;;5099548;27;20053;-74
2022/05/09 01:13:25;;;;;;;6.47;2.33;;;5.60;99.90;;;;;;5101844;27;20134;-75
2022/05/09 01:15:53;;;;;;;8.35;2.70;;;5.60;99.90;;;;;;5102482;27;20083;-75
2022/05/09 01:18:19;;;;;;;12.48;2.78;;;5.50;99.90;;;;;;5118847;27;20078;-75
2022/05/09 01:20:44;;;;;;;13.75;3.47;;;5.50;99.90;;;;;;5102192;27;20487;-75
2022/05/09 01:23:11;;;;;;;11.93;3.70;;;5.50;99.90;;;;;;5102377;27;20069;-75
2022/05/09 01:25:37;;;;;;;6.05;2.90;;;5.40;99.90;;;;;;5118767;27;20386;-75
2022/05/09 01:28:03;;;;;;;5.47;2.38;;;5.40;99.90;;;;;;5137339;27;20444;-75
2022/05/09 01:30:56;;;;;;;4.28;2.53;;;5.40;99.90;;;;;;5101005;27;20080;-75
2022/05/09 01:33:28;;;;;;;7.53;3.00;;;5.40;99.90;;;;;;5103971;27;20172;-75
2022/05/09 01:36:01;;;;;;;9.75;3.13;;;5.40;99.90;;;;;;5102577;27;20100;-75
2022/05/09 01:39:00;;;;;;;9.93;3.80;;;5.40;99.90;;;;;;5085143;27;20050;-74
2022/05/09 01:41:27;;;;;;;8.57;3.30;;;5.50;99.90;;;;;;5063555;27;20052;-74
2022/05/09 01:43:55;;;;;;;13.65;3.90;;;5.40;99.90;;;;;;5085112;27;20051;-74
2022/05/09 01:46:27;;;;;;;10.63;3.53;;;5.50;99.90;;;;;;5136398;27;20125;-79
2022/05/09 01:51:38;;;;;;;12.85;3.92;;;5.50;99.90;;;;;;5136413;27;20507;-74
2022/05/09 01:54:04;;;;;;;8.68;3.17;;;5.50;99.90;;;;;;5118711;27;20057;-75
2022/05/09 01:56:32;;;;;;;8.30;3.30;;;5.50;99.90;;;;;;5101350;27;20387;-75
2022/05/09 01:58:57;;;;;;;7.13;3.17;;;5.50;99.90;;;;;;5118567;27;20090;-74
2022/05/09 02:01:26;;;;;;;9.30;3.40;;;5.40;99.90;;;;;;5100586;27;20119;-75
2022/05/09 02:03:51;;;;;;;10.23;3.50;;;5.40;99.90;;;;;;5101583;27;20051;-75
2022/05/09 02:06:23;;;;;;;9.70;3.33;;;5.40;99.90;;;;;;5118300;27;20479;-77
2022/05/09 02:08:49;;;;;;;9.27;2.78;;;5.40;99.90;;;;;;5086030;27;20499;-75
2022/05/09 02:11:14;;;;;;;7.65;3.17;;;5.30;99.90;;;;;;5117987;27;20051;-76
2022/05/09 02:13:40;;;;;;;7.28;2.83;;;5.40;99.90;;;;;;5117383;27;20043;-75
2022/05/09 02:16:06;;;;;;;8.95;3.72;;;5.30;99.90;;;;;;5117676;27;20125;-75
2022/05/09 02:18:32;;;;;;;7.30;2.65;;;5.30;99.90;;;;;;5100351;27;20387;-76
2022/05/09 02:20:57;;;;;;;4.15;2.70;;;5.40;99.90;;;;;;5083707;27;20508;-75
2022/05/09 02:23:23;;;;;;;4.78;2.15;;;5.40;99.90;;;;;;5117284;27;20043;-75
2022/05/09 02:25:49;;;;;;;7.35;2.83;;;5.30;99.90;;;;;;5100262;27;20042;-75
2022/05/09 02:28:15;;;;;;;5.65;2.70;;;5.30;99.90;;;;;;5117848;27;20053;-75
2022/05/09 02:30:41;;;;;;;5.30;2.53;;;5.30;99.90;;;;;;5135008;27;20475;-75
2022/05/09 02:33:07;;;;;;;8.02;2.88;;;5.30;99.90;;;;;;5100822;27;20051;-75
2022/05/09 02:35:33;;;;;;;7.82;2.92;;;5.30;99.90;;;;;;5100569;27;20417;-75
2022/05/09 02:37:59;;;;;;;8.73;2.90;;;5.30;99.90;;;;;;5100669;27;20103;-76
2022/05/09 02:40:24;;;;;;;6.93;3.25;;;5.20;99.90;;;;;;5100525;27;20087;-75
2022/05/09 02:42:52;;;;;;;14.63;3.60;;;5.20;99.90;;;;;;5100249;27;20043;-75
2022/05/09 02:45:18;;;;;;;6.97;3.53;;;5.20;99.90;;;;;;5100805;27;20046;-75
2022/05/09 02:47:43;;;;;;;7.18;3.67;;;5.20;99.90;;;;;;5135335;27;20168;-76
2022/05/09 02:50:09;;;;;;;7.60;3.30;;;5.10;99.90;;;;;;5117614;27;20075;-77
2022/05/09 02:52:39;;;;;;;8.13;3.10;;;5.10;99.90;;;;;;5117146;27;20043;-76
2022/05/09 02:55:05;;;;;;;8.02;3.30;;;5.10;99.90;;;;;;5083953;27;20039;-76
2022/05/09 02:57:31;;;;;;;7.57;3.40;;;5.10;99.90;;;;;;5083120;27;20047;-77
2022/05/09 02:59:57;;;;;;;7.28;3.38;;;5.10;99.90;;;;;;5117308;27;20058;-76
2022/05/09 03:02:23;;;;;;;8.75;3.25;;;5.00;99.90;;;;;;5100510;27;20055;-76
2022/05/09 03:04:48;;;;;;;8.85;3.47;;;5.00;99.90;;;;;;5099917;27;20056;-75
2022/05/09 03:07:15;;;;;;;9.70;3.25;;;5.00;99.90;;;;;;5117379;27;20044;-76
2022/05/09 03:09:42;;;;;;;10.35;3.47;;;4.90;99.90;;;;;;5099921;27;20057;-76
2022/05/09 03:12:08;;;;;;;7.40;3.35;;;4.90;99.90;;;;;;5100276;27;20054;-76
2022/05/09 03:14:37;;;;;;;10.88;3.53;;;4.80;99.90;;;;;;5116919;27;20468;-75
2022/05/09 03:17:04;;;;;;;7.90;3.35;;;4.80;99.90;;;;;;5116882;27;20050;-76
2022/05/09 03:19:30;;;;;;;10.05;3.72;;;4.80;99.90;;;;;;5116947;27;20047;-76
2022/05/09 03:21:55;;;;;;;10.73;3.72;;;4.80;99.90;;;;;;5082596;27;20097;-76
2022/05/09 03:24:21;;;;;;;12.93;3.50;;;4.80;99.90;;;;;;5099923;27;20054;-76
2022/05/09 03:26:47;;;;;;;9.68;3.70;;;4.70;99.90;;;;;;5099471;27;20088;-77
2022/05/09 03:29:13;;;;;;;6.38;3.13;;;4.80;99.90;;;;;;5099510;27;20047;-76
2022/05/09 03:31:39;;;;;;;7.63;3.03;;;4.80;99.90;;;;;;5115624;27;20058;-76
2022/05/09 03:34:04;;;;;;;9.98;3.35;;;4.80;99.90;;;;;;5098468;27;20456;-75
2022/05/09 03:36:30;;;;;;;6.30;3.65;;;4.70;99.90;;;;;;5116655;27;20039;-76
2022/05/09 03:38:57;;;;;;;9.88;3.30;;;4.70;99.90;;;;;;5134373;27;20395;-76
2022/05/09 03:41:22;;;;;;;14.32;4.20;;;4.70;99.90;;;;;;5134425;27;20046;-76
2022/05/09 03:43:48;;;;;;;9.88;3.75;;;4.70;99.90;;;;;;5115825;27;20042;-75
2022/05/09 03:46:14;;;;;;;8.68;4.22;;;4.80;99.90;;;;;;5133985;27;20079;-76
2022/05/09 03:48:39;;;;;;;8.32;3.53;;;4.90;99.90;;;;;;5133993;27;20047;-76
2022/05/09 03:51:05;;;;;;;15.25;4.80;;;4.80;99.90;;;;;;5116342;27;20100;-76
2022/05/09 03:53:31;;;;;;;18.15;5.78;;;4.80;99.90;;;;;;5116217;27;20115;-76
2022/05/09 03:55:56;;;;;;;11.07;4.82;;;4.80;99.90;;;;;;5082123;27;20054;-76
2022/05/09 03:58:22;;;;;;;12.80;4.47;;;4.80;99.90;;;;;;5115965;27;20043;-76
2022/05/09 04:00:48;;;;;;;10.02;4.50;;;4.80;99.90;;;;;;5115347;27;20568;-76
2022/05/09 04:03:14;;;;;;;11.20;4.90;;;4.90;99.90;;;;;;5115472;27;20122;-76
2022/05/09 04:05:40;;;;;;;11.55;4.72;;;4.90;99.90;;;;;;5133620;27;20043;-78
2022/05/09 04:08:08;;;;;;;10.38;4.55;;;4.90;99.90;;;;;;5098942;27;20040;-76
2022/05/09 04:10:34;;;;;;;13.75;5.03;;;4.90;99.90;;;;;;5115673;27;20081;-76
2022/05/09 04:13:00;;;;;;;12.73;5.38;;;4.90;99.90;;;;;;5098477;27;20449;-76
2022/05/09 04:18:10;;;;;;;12.38;4.55;;;5.00;99.90;;;;;;5118081;27;20542;-76
2022/05/09 04:20:36;;;;;;;11.57;4.15;;;5.00;99.90;;;;;;5115512;27;20051;-76
2022/05/09 04:23:02;;;;;;;7.60;4.53;;;5.00;99.90;;;;;;5115278;27;20051;-77
2022/05/09 04:25:31;;;;;;;11.30;4.97;;;5.00;99.90;;;;;;5098725;27;20471;-76
2022/05/09 04:27:58;;;;;;;10.45;4.00;;;5.00;99.90;;;;;;5081905;27;20427;-76
2022/05/09 04:30:24;;;;;;;9.48;3.42;;;5.00;99.90;;;;;;5081688;27;20414;-77
2022/05/09 04:32:49;;;;;;;5.80;3.00;;;5.00;99.90;;;;;;5115014;27;20047;-76
2022/05/09 04:35:19;;;;;;;5.20;2.60;;;5.00;99.90;;;;;;5133836;27;20047;-76
2022/05/09 04:37:47;;;;;;;7.03;2.85;;;5.00;99.90;;;;;;5098949;27;20124;-76
2022/05/09 04:40:17;;;;;;;7.32;2.92;;;5.00;99.90;;;;;;5098538;27;20054;-75
2022/05/09 04:42:43;;;;;;;6.70;2.63;;;5.00;99.90;;;;;;5099094;27;20559;-75
2022/05/09 04:45:10;;;;;;;5.00;3.00;;;5.10;99.90;;;;;;5098217;27;20051;-75
2022/05/09 04:47:43;;;;;;;4.95;3.20;;;5.10;99.90;;;;;;5065310;27;20130;-78
2022/05/09 04:50:10;;;;;;;6.22;3.78;;;5.10;99.90;;;;;;5115634;28;20070;-75
2022/05/09 04:52:35;;;;;;;6.28;3.47;;;5.30;99.90;;;;;;5081616;28;20441;-76
2022/05/09 04:55:01;;;;;;;8.45;3.55;;;5.20;99.90;;;;;;5097847;28;20053;-77
2022/05/09 04:57:27;;;;;;;7.13;3.20;;;5.20;99.90;;;;;;5133453;28;20490;-74
2022/05/09 04:59:52;;;;;;;7.45;3.42;;;5.20;99.90;;;;;;5114818;28;20107;-75
2022/05/09 05:02:18;;;;;;;8.80;3.80;;;5.20;99.90;;;;;;5114993;28;20479;-75
2022/05/09 05:04:44;;;;;;;10.07;4.30;;;5.40;99.90;;;;;;5115145;28;20067;-76
2022/05/09 05:07:09;;;;;;;15.05;5.28;;;5.40;99.90;;;;;;5080972;28;20043;-75
2022/05/09 05:09:35;;;;;;;13.80;5.53;;;5.50;99.90;;;;;;5114979;28;20115;-75
2022/05/09 05:12:02;;;;;;;16.02;5.78;;;5.60;99.90;;;;;;5081053;28;20049;-76
2022/05/09 05:14:27;;;;;;;16.92;6.03;;;5.70;99.90;;;;;;5098436;28;20494;-75
2022/05/09 05:16:59;;;;;;;16.90;6.63;;;5.80;99.90;;;;;;5064321;28;20051;-76
2022/05/09 05:19:25;;;;;;;13.38;5.25;;;5.90;99.90;;;;;;5116008;28;20434;-75
2022/05/09 05:21:51;;;;;;;18.38;6.60;;;6.00;99.90;;;;;;5097438;28;20092;-76
2022/05/09 05:24:17;;;;;;;20.27;5.97;;;6.00;99.90;;;;;;5133498;28;20051;-75
2022/05/09 05:26:42;;;;;;;15.63;6.45;;;6.10;99.90;;;;;;5114927;28;20421;-75
2022/05/09 05:29:08;;;;;;;14.70;6.10;;;6.20;99.90;;;;;;5114586;28;20134;-75
2022/05/09 05:31:34;;;;;;;17.27;6.50;;;6.30;99.90;;;;;;5114957;28;20104;-75
2022/05/09 05:34:00;;;;;;;14.60;5.93;;;6.30;99.90;;;;;;5097675;28;20088;-76
2022/05/09 05:36:26;;;;;;;19.52;6.85;;;6.40;99.90;;;;;;5098039;28;20054;-75
2022/05/09 05:38:51;;;;;;;15.90;6.70;;;6.50;99.90;;;;;;5098170;28;20086;-76
2022/05/09 05:41:20;;;;;;;16.60;6.85;;;6.50;99.90;;;;;;5114410;28;20078;-76
2022/05/09 05:43:46;;;;;;;17.00;6.40;;;6.70;99.90;;;;;;5098128;28;20076;-75
2022/05/09 05:46:12;;;;;;;17.25;6.40;;;6.60;99.90;;;;;;5080491;28;20035;-76
2022/05/09 05:48:38;;;;;;;18.02;6.47;;;6.70;99.90;;;;;;5114730;28;20087;-76
2022/05/09 05:51:04;;;;;;;20.58;6.82;;;6.80;99.90;;;;;;5097157;28;20572;-76
2022/05/09 05:53:29;;;;;;;17.70;6.38;;;6.80;99.90;;;;;;5114935;28;20039;-75
2022/05/09 05:55:55;;;;;;;18.05;6.72;;;6.90;99.90;;;;;;5132622;27;20054;-78
2022/05/09 05:58:23;;;;;;;15.65;6.22;;;7.00;99.90;;;;;;5100950;27;20043;-75
2022/05/09 06:00:49;;;;;;;12.25;6.38;;;7.00;99.90;;;;;;5118275;27;20127;-75
2022/05/09 06:03:15;;;;;;;17.83;6.65;;;7.10;99.90;;;;;;5118065;27;20134;-75
2022/05/09 06:05:41;;;;;;;15.05;6.68;;;7.10;99.90;;;;;;5118546;27;20105;-75
2022/05/09 06:08:07;;;;;;;17.85;7.05;;;7.10;99.90;;;;;;5100941;27;20047;-76
2022/05/09 06:10:33;;;;;;;18.85;6.50;;;7.20;99.90;;;;;;5101600;27;20092;-76
2022/05/09 06:13:01;;;;;;;18.58;6.95;;;7.20;99.90;;;;;;5100877;27;20137;-76
2022/05/09 06:15:32;;;;;;;13.45;5.93;;;7.40;99.90;;;;;;5101331;27;20047;-75
2022/05/09 06:17:59;;;;;;;15.13;6.57;;;7.30;99.90;;;;;;5117914;27;20047;-79
2022/05/09 06:20:26;;;;;;;15.98;6.35;;;7.30;99.90;;;;;;5084444;27;20043;-75
2022/05/09 06:22:54;;;;;;;18.25;6.20;;;7.30;99.90;;;;;;5084561;27;20047;-75
2022/05/09 06:25:20;;;;;;;20.75;7.13;;;7.30;99.90;;;;;;5084147;27;20050;-75
2022/05/09 06:27:46;;;;;;;21.52;7.40;;;7.40;99.90;;;;;;5117845;27;20039;-76
2022/05/09 06:30:13;;;;;;;18.38;6.65;;;7.40;99.90;;;;;;5100037;27;20487;-76
2022/05/09 06:32:38;;;;;;;17.25;6.15;;;7.50;99.90;;;;;;5117917;27;20058;-75
2022/05/09 06:35:05;;;;;;;20.60;6.65;;;7.60;99.90;;;;;;5083190;27;20491;-75
2022/05/09 06:37:33;;;;;;;21.27;6.82;;;7.50;99.90;;;;;;5100988;27;20497;-76
2022/05/09 06:40:01;;;;;;;17.30;6.55;;;7.60;99.90;;;;;;5117830;27;20399;-76
2022/05/09 06:42:29;;;;;;;17.00;6.35;;;7.60;99.90;;;;;;5135985;27;20043;-75
2022/05/09 06:44:55;;;;;;;19.73;6.70;;;7.70;99.90;;;;;;5117749;27;20043;-76
2022/05/09 06:47:21;;;;;;;18.35;6.63;;;7.80;99.90;;;;;;5134979;27;20598;-75
2022/05/09 06:49:46;;;;;;;17.38;6.65;;;7.80;99.90;;;;;;5100653;27;20068;-75
2022/05/09 06:52:12;;;;;;;13.00;5.63;;;7.90;99.90;;;;;;5100158;27;20050;-75
2022/05/09 06:54:38;;;;;;;17.33;5.60;;;8.00;99.90;;;;;;5100448;27;20043;-75
2022/05/09 06:57:05;;;;;;;14.25;5.82;;;8.10;99.90;;;;;;5135186;27;20091;-78
2022/05/09 06:59:33;;;;;;;18.73;5.43;;;8.20;99.90;;;;;;5117369;27;20129;-75
2022/05/09 07:02:00;;;;;;;16.83;6.00;;;8.20;99.90;;;;;;5099792;27;20084;-76
2022/05/09 07:04:25;;;;;;;15.85;5.68;;;8.30;99.90;;;;;;5083232;27;20058;-75
2022/05/09 07:06:51;;;;;;;16.08;5.00;;;8.40;99.90;;;;;;5117136;27;20043;-75
2022/05/09 07:09:16;;;;;;;18.00;5.15;;;8.50;99.90;;;;;;5133311;27;20043;-75
2022/05/09 07:11:42;;;;;;;13.98;5.35;;;8.50;99.90;;;;;;5117173;27;20051;-75
2022/05/09 07:14:08;;;;;;;14.30;5.13;;;8.70;99.90;;;;;;5099766;27;20059;-75
2022/05/09 07:16:34;;;;;;;16.50;5.05;;;8.80;99.90;;;;;;5100236;27;20049;-76
2022/05/09 07:18:59;;;;;;;14.18;4.88;;;8.90;99.90;;;;;;5116989;27;20051;-76
2022/05/09 07:21:25;;;;;;;19.60;5.00;;;8.90;99.90;;;;;;5082291;27;20043;-75
2022/05/09 07:23:51;;;;;;;12.45;5.03;;;9.00;99.90;;;;;;5082800;27;20104;-75
2022/05/09 07:26:17;;;;;;;17.73;5.00;;;9.20;99.90;;;;;;5134625;27;20039;-75
2022/05/09 07:28:42;;;;;;;14.93;4.78;;;9.40;99.90;;;;;;5083058;27;20083;-75
2022/05/09 07:31:09;;;;;;;13.32;4.22;;;9.60;99.90;;;;;;5115997;27;20403;-80
2022/05/09 07:33:35;;;;;;;13.85;4.30;;;9.70;99.90;;;;;;5099957;27;20415;-75
2022/05/09 07:36:01;;;;;;;14.68;4.65;;;9.80;99.90;;;;;;5134839;27;20074;-76
2022/05/09 07:38:26;;;;;;;9.52;4.22;;;10.00;99.90;;;;;;5116289;27;20081;-76
2022/05/09 07:40:52;;;;;;;14.98;4.72;;;10.00;99.90;;;;;;5099766;27;20045;-75
2022/05/09 07:43:20;;;;;;;12.57;4.35;;;10.10;99.90;;;;;;5099216;27;20070;-75
2022/05/09 07:45:47;;;;;;;9.15;3.47;;;10.20;99.90;;;;;;5116441;27;20054;-75
2022/05/09 07:48:13;;;;;;;13.05;4.05;;;10.30;99.90;;;;;;5099304;27;20047;-76
2022/05/09 07:50:38;;;;;;;13.55;4.22;;;10.40;99.90;;;;;;5116303;27;20072;-76
2022/05/09 07:53:06;;;;;;;17.83;4.95;;;10.50;99.90;;;;;;5134498;27;20459;-76
2022/05/09 07:55:31;;;;;;;12.55;4.63;;;10.70;99.90;;;;;;5133506;27;20524;-76
2022/05/09 07:57:57;;;;;;;15.23;4.35;;;10.80;99.90;;;;;;5134373;27;20125;-75
2022/05/09 08:00:23;;;;;;;12.88;4.20;;;10.90;99.90;;;;;;5115222;27;20136;-76
2022/05/09 08:02:49;;;;;;;13.63;4.13;;;11.00;99.90;;;;;;5134442;27;20078;-75
2022/05/09 08:05:14;;;;;;;10.00;4.28;;;11.20;99.90;;;;;;5081892;27;20489;-75
2022/05/09 08:07:40;;;;;;;18.63;4.63;;;11.30;99.90;;;;;;5116068;27;20046;-78
2022/05/09 08:10:07;;;;;;;14.57;3.92;;;11.40;99.90;;;;;;5116017;27;20044;-78
2022/05/09 08:12:33;;;;;;;12.50;3.53;;;11.50;99.90;;;;;;5081756;27;20470;-78
2022/05/09 08:14:58;;;;;;;15.70;4.10;;;11.60;99.90;;;;;;5115723;27;20083;-78
2022/05/09 08:17:24;;;;;;;12.70;3.95;;;11.80;99.90;;;;;;5098501;27;20043;-78
2022/05/09 08:19:55;;;;;;;9.65;3.80;;;11.90;99.90;;;;;;5065046;27;20046;-77
2022/05/09 08:22:21;;;;;;;13.70;3.75;;;12.10;99.40;;;;;;5081836;27;20050;-77
2022/05/09 08:24:47;;;;;;;14.40;4.10;;;12.20;99.20;;;;;;5082097;27;20092;-78
2022/05/09 08:27:12;;;;;;;9.43;3.65;;;12.30;99.10;;;;;;5098796;27;20047;-78
2022/05/09 08:29:38;;;;;;;15.93;3.95;;;12.40;98.20;;;;;;5098191;27;20049;-78
2022/05/09 08:32:05;;;;;;;13.68;3.47;;;12.50;98.10;;;;;;5099085;27;20070;-78
2022/05/09 08:34:30;;;;;;;10.38;3.90;;;12.50;97.40;;;;;;5098578;27;20039;-78
2022/05/09 08:36:56;;;;;;;10.13;3.30;;;12.60;97.50;;;;;;5098839;27;20078;-78
2022/05/09 08:39:23;;;;;;;19.42;3.90;;;12.60;97.40;;;;;;5081560;27;20039;-78
2022/05/09 08:42:06;;;;;;;13.77;3.65;;;12.60;96.90;;;;;;5082070;28;20047;-78
2022/05/09 08:44:56;;;;;;;12.27;3.33;;;12.70;96.50;;;;;;5099058;27;20391;-78
2022/05/09 08:47:22;;;;;;;14.07;3.42;;;12.80;93.50;;;;;;5098523;28;20463;-77
2022/05/09 08:49:59;;;;;;;11.13;3.38;;;12.90;95.20;;;;;;5098580;27;20082;-78
2022/05/09 08:52:49;;;;;;;9.18;2.88;;;13.00;94.30;;;;;;5081368;27;20047;-78
2022/05/09 08:55:19;;;;;;;16.25;3.58;;;13.10;93.60;;;;;;5100545;27;20402;-78
2022/05/09 08:57:49;;;;;;;12.98;2.92;;;13.20;93.90;;;;;;5082367;28;20049;-78
2022/05/09 09:00:17;;;;;;;10.70;2.78;;;13.20;93.20;;;;;;5081926;28;20043;-79
2022/05/09 09:02:44;;;;;;;12.15;3.10;;;13.30;92.60;;;;;;5081134;28;20047;-80
2022/05/09 09:05:11;;;;;;;10.32;3.00;;;13.30;91.50;;;;;;5081318;28;20054;-79
2022/05/09 09:08:19;;;;;;;8.63;2.67;;;13.60;89.70;;;;;;5081049;28;20395;-80
2022/05/09 09:11:03;;;;;;;9.00;2.70;;;13.80;86.90;;;;;;5084463;28;20047;-80
2022/05/09 09:14:06;;;;;;;12.07;2.65;;;13.90;86.40;;;;;;5099799;28;20093;-80
2022/05/09 09:17:09;;;;;;;7.90;2.63;;;14.00;70.00;;;;;;5097495;28;20043;-80
2022/05/09 09:20:10;;;;;;;11.93;2.70;;;14.20;77.80;;;;;;5097932;28;20391;-79
2022/05/09 09:22:45;;;;;;;11.20;2.58;;;14.20;78.30;;;;;;5097762;28;20047;-80
2022/05/09 09:25:40;;;;;;;8.57;2.22;;;14.40;75.70;;;;;;5133463;28;20043;-79
2022/05/09 09:28:13;;;;;;;8.75;2.30;;;14.50;75.70;;;;;;5083694;28;20479;-80
2022/05/09 09:30:39;;;;;;;12.60;2.65;;;14.40;77.00;;;;;;5114072;27;20059;-79
2022/05/09 09:33:09;;;;;;;11.20;3.05;;;14.30;75.60;;;;;;5084163;27;20487;-80
2022/05/09 09:36:08;;;;;;;6.63;2.42;;;14.50;75.00;;;;;;5085322;27;20074;-80
2022/05/09 09:38:40;;;;;;;10.18;2.40;;;14.60;70.40;;;;;;5084614;27;20137;-80
2022/05/09 09:41:20;;;;;;;8.38;2.40;;;14.60;74.00;;;;;;5085062;27;20414;-80
2022/05/09 09:43:46;;;;;;;;;;;14.60;71.00;;;;;;5101899;27;20485;-79
2022/05/09 09:46:12;;;;;;;6.78;2.13;;;14.60;71.00;;;;;;5119055;27;19973;-79
2022/05/09 09:48:39;;;;;;;10.45;2.45;;;14.70;73.40;;;;;;5101256;27;20039;-79
2022/05/09 09:51:18;;;;;;;8.00;2.60;;;14.80;74.30;;;;;;5102416;27;20428;-79
2022/05/09 09:53:50;;;;;;;9.68;2.35;;;15.10;72.40;;;;;;5084393;27;20462;-79
2022/05/09 09:56:21;;;;;;;8.85;2.60;;;15.20;70.00;;;;;;5118922;27;20049;-79
2022/05/09 09:59:10;;;;;;;9.38;2.35;;;15.30;68.50;;;;;;5118532;27;20383;-79
2022/05/09 10:01:36;;;;;;;8.00;2.40;;;15.30;63.30;;;;;;5104343;27;20487;-79
2022/05/09 10:04:24;;;;;;;12.25;2.63;;;15.30;69.80;;;;;;5084652;27;20072;-79
2022/05/09 10:07:12;;;;;;;8.25;2.15;;;15.30;67.80;;;;;;5068710;27;20134;-78
2022/05/09 10:09:38;;;;;;;14.18;2.63;;;15.40;65.90;;;;;;5101154;27;20054;-79
2022/05/09 10:12:25;;;;;;;8.15;2.35;;;15.50;66.40;;;;;;5118491;27;20051;-81
2022/05/09 10:14:51;;;;;;;11.60;2.63;;;15.60;61.20;;;;;;5084561;27;20530;-80
2022/05/09 10:17:19;;;;;;;9.45;2.75;;;15.70;62.50;;;;;;5067910;27;20364;-79
2022/05/09 10:19:45;;;;;;;9.98;2.90;;;15.80;61.60;;;;;;5084379;27;20131;-78
2022/05/09 10:25:36;;;;;;;9.90;2.53;;;16.10;58.90;;;;;;5091870;27;20070;-83
2022/05/09 10:28:04;;;;;;;10.13;2.30;;;16.20;62.50;;;;;;5101061;27;20039;-79
2022/05/09 10:30:34;;;;;;;8.43;2.30;;;16.30;62.10;;;;;;5118028;27;20047;-79
2022/05/09 10:33:38;;;;;;;7.82;2.42;;;16.40;60.60;;;;;;5084358;27;20043;-79
2022/05/09 10:36:21;;;;;;;10.05;2.70;;;16.40;59.30;;;;;;5117753;27;20055;-80
2022/05/09 10:38:56;;;;;;;8.38;2.28;;;16.70;59.30;;;;;;5083884;27;20138;-79
2022/05/09 10:41:29;;;;;;;12.27;2.47;;;16.80;60.30;;;;;;5100779;27;20043;-79
2022/05/09 10:44:17;;;;;;;8.57;2.33;;;16.80;59.50;;;;;;5117060;27;20055;-80
2022/05/09 10:46:54;;;;;;;5.47;2.22;;;16.70;59.40;;;;;;5085656;27;20047;-80
2022/05/09 10:49:26;;;;;;;12.80;2.33;;;16.70;57.90;;;;;;5084110;27;20055;-80
2022/05/09 10:51:58;;;;;;;6.90;2.63;;;16.70;57.70;;;;;;5100034;27;20039;-80
2022/05/09 10:54:45;;;;;;;8.18;2.25;;;16.80;58.20;;;;;;5117457;27;20039;-80
2022/05/09 10:57:31;;;;;;;15.07;2.30;;;16.90;55.90;;;;;;5050904;27;20500;-80
2022/05/09 11:00:04;;;;;;;6.57;2.00;;;17.00;56.90;;;;;;5116135;27;20059;-80
2022/05/09 11:02:38;;;;;;;8.98;2.45;;;17.00;55.90;;;;;;5083781;27;20047;-80
2022/05/09 11:05:05;;;;;;;5.72;2.10;;;17.00;55.00;;;;;;5100522;27;20039;-80
2022/05/09 11:07:47;;;;;;;7.65;2.50;;;17.10;55.30;;;;;;5100362;27;20120;-80
2022/05/09 11:10:39;;;;;;;9.82;2.47;;;17.30;55.30;;;;;;5068176;27;20047;-79
2022/05/09 11:13:22;;;;;;;8.45;2.13;;;17.30;56.80;;;;;;5116865;27;20039;-80
2022/05/09 11:16:04;;;;;;;11.43;2.90;;;17.50;55.50;;;;;;5099897;27;20100;-79
2022/05/09 11:18:44;;;;;;;8.93;2.15;;;17.70;55.50;;;;;;5085340;27;20054;-79
2022/05/09 11:21:29;;;;;;;;;;;17.80;55.00;;;;;;5117497;27;20039;-80
2022/05/09 11:24:28;;;;;;;6.07;2.17;;;17.80;53.90;;;;;;5099238;27;20372;-79
2022/05/09 11:27:38;;;;;;;9.98;2.08;;;17.70;55.00;;;;;;5116413;27;20432;-79
2022/05/09 11:30:10;;;;;;;5.30;2.00;;;17.90;55.10;;;;;;5115971;27;20092;-81
2022/05/09 11:32:42;;;;;;;7.50;2.10;;;18.00;54.50;;;;;;5100160;27;20133;-81
2022/05/09 11:35:31;;;;;;;9.10;2.28;;;18.10;54.70;;;;;;5082977;27;20051;-80
2022/05/09 11:38:18;;;;;;;8.75;2.08;;;18.10;54.40;;;;;;5102310;27;20043;-81
2022/05/09 11:40:55;;;;;;;5.80;1.98;;;18.20;50.90;;;;;;5116330;27;20089;-81
2022/05/09 11:43:58;;;;;;;6.28;1.73;;;18.30;50.60;;;;;;5099741;27;20047;-80
2022/05/09 11:46:49;;;;;;;9.30;2.03;;;18.30;52.00;;;;;;5116619;27;20047;-80
2022/05/09 11:49:50;;;;;;;6.45;1.92;;;18.30;53.30;;;;;;5085325;27;20043;-80
2022/05/09 11:52:37;;;;;;;6.85;1.92;;;18.40;51.00;;;;;;5098348;27;20080;-80
2022/05/09 11:55:19;;;;;;;6.13;1.65;;;18.40;49.00;;;;;;5082614;27;20523;-80
2022/05/09 11:57:55;;;;;;;5.78;1.65;;;18.50;51.80;;;;;;5066925;27;20051;-84
2022/05/09 12:00:27;;;;;;;4.93;2.00;;;18.50;51.70;;;;;;5067313;27;20108;-80
2022/05/09 12:02:57;;;;;;;6.55;1.85;;;18.80;50.60;;;;;;5098738;27;20487;-81
2022/05/09 12:05:32;;;;;;;6.90;1.87;;;18.90;49.90;;;;;;5066153;27;20051;-80
2022/05/09 12:08:20;;;;;;;4.78;1.67;;;19.00;50.10;;;;;;5115641;27;20046;-80
2022/05/09 12:10:51;;;;;;;7.07;1.95;;;18.90;49.40;;;;;;5099483;27;20098;-80
2022/05/09 12:13:19;;;;;;;7.35;2.17;;;18.80;50.20;;;;;;5082374;27;20039;-80
2022/05/09 12:15:48;;;;;;;7.00;1.92;;;18.80;49.60;;;;;;5099300;27;20380;-80
2022/05/09 12:18:32;;;;;;;5.18;1.65;;;18.80;50.30;;;;;;5066189;27;20092;-80
2022/05/09 12:21:08;;;;;;;7.00;1.80;;;18.90;50.50;;;;;;5098723;27;20050;-80
2022/05/09 12:23:47;;;;;;;7.28;2.25;;;19.00;51.00;;;;;;5066684;27;20394;-80
2022/05/09 12:26:30;;;;;;;6.28;2.22;;;19.00;49.20;;;;;;5098359;27;20550;-80
2022/05/09 12:29:19;;;;;;;5.72;2.05;;;19.10;49.80;;;;;;5081916;27;20053;-79
2022/05/09 12:31:46;;;;;;;9.27;1.90;;;19.20;50.00;;;;;;5115350;27;20406;-80
2022/05/09 12:34:13;;;;;;;7.05;2.13;;;19.30;49.90;;;;;;5098514;27;20039;-80
2022/05/09 12:36:39;;;;;;;6.57;1.70;;;19.40;49.20;;;;;;5082270;27;20407;-79
2022/05/09 12:39:24;;;;;;;7.20;1.48;;;19.50;49.00;;;;;;5098393;27;20055;-80
2022/05/09 12:41:57;;;;;;;6.35;2.30;;;19.50;48.80;;;;;;5083101;27;20046;-79
2022/05/09 12:44:27;;;;;;;8.40;2.42;;;19.50;48.90;;;;;;5082937;27;20422;-79
2022/05/09 12:47:01;;;;;;;6.68;2.08;;;19.60;49.20;;;;;;5064880;27;20049;-80
2022/05/09 12:50:10;;;;;;;5.63;1.85;;;19.60;49.00;;;;;;5065426;28;20093;-79
2022/05/09 12:52:39;;;;;;;9.18;2.20;;;19.60;49.10;;;;;;5090094;27;20054;-80
2022/05/09 12:57:49;;;;;;;7.75;2.00;;;19.80;49.20;;;;;;5101338;28;20054;-79
2022/05/09 13:00:17;;;;;;;7.00;2.65;;;19.80;49.20;;;;;;5081407;28;20047;-80
2022/05/09 13:02:43;;;;;;;6.75;2.20;;;19.80;49.20;;;;;;5064987;28;20038;-79
2022/05/09 13:05:09;;;;;;;10.35;2.20;;;19.80;49.50;;;;;;5081223;28;20051;-80
2022/05/09 13:08:02;;;;;;;6.38;1.92;;;19.90;48.80;;;;;;5119315;27;20111;-79
2022/05/09 13:10:29;;;;;;;10.38;2.38;;;19.90;49.20;;;;;;5070830;27;20461;-79
2022/05/09 13:13:08;;;;;;;5.85;1.83;;;19.90;48.80;;;;;;5102863;27;20054;-80
2022/05/09 13:15:34;;;;;;;7.68;2.22;;;20.00;47.30;;;;;;5087270;27;20046;-79
2022/05/09 13:18:01;;;;;;;7.03;2.13;;;20.10;48.00;;;;;;5085361;27;20043;-80
2022/05/09 13:20:29;;;;;;;5.53;1.90;;;20.00;48.10;;;;;;5069254;27;20421;-80